sensor_id;sensor_type;location;lat;lon;timestamp;temperature;humidity
36716;DHT22;22699;51.034;3.730;2023-09-08T00:00:26;23.90;98.00
36716;DHT22;22699;51.034;3.730;2023-09-08T00:02:52;23.90;98.20
36716;DHT22;22699;51.034;3.730;2023-09-08T00:05:17;23.90;98.30
36716;DHT22;22699;51.034;3.730;2023-09-08T00:07:43;23.90;98.40
36716;DHT22;22699;51.034;3.730;2023-09-08T00:10:09;23.90;98.50
36716;DHT22;22699;51.034;3.730;2023-09-08T00:12:43;23.90;98.60
36716;DHT22;22699;51.034;3.730;2023-09-08T00:15:14;23.90;98.70
36716;DHT22;22699;51.034;3.730;2023-09-08T00:17:46;23.90;98.70
36716;DHT22;22699;51.034;3.730;2023-09-08T00:20:13;23.90;98.80
36716;DHT22;22699;51.034;3.730;2023-09-08T00:22:40;23.80;98.90
36716;DHT22;22699;51.034;3.730;2023-09-08T00:25:10;23.80;99.10
36716;DHT22;22699;51.034;3.730;2023-09-08T00:27:35;23.70;99.20
36716;DHT22;22699;51.034;3.730;2023-09-08T00:30:04;23.60;99.30
36716;DHT22;22699;51.034;3.730;2023-09-08T00:32:49;23.60;99.40
36716;DHT22;22699;51.034;3.730;2023-09-08T00:35:18;23.60;99.60
36716;DHT22;22699;51.034;3.730;2023-09-08T00:37:48;23.60;99.70
36716;DHT22;22699;51.034;3.730;2023-09-08T00:40:13;23.70;99.80
36716;DHT22;22699;51.034;3.730;2023-09-08T00:42:39;23.60;99.70
36716;DHT22;22699;51.034;3.730;2023-09-08T00:45:05;23.60;99.90
36716;DHT22;22699;51.034;3.730;2023-09-08T00:47:32;23.60;99.90
36716;DHT22;22699;51.034;3.730;2023-09-08T00:50:08;23.50;99.90
36716;DHT22;22699;51.034;3.730;2023-09-08T00:52:55;23.50;99.90
36716;DHT22;22699;51.034;3.730;2023-09-08T00:55:21;23.50;99.90
36716;DHT22;22699;51.034;3.730;2023-09-08T00:57:47;23.40;99.90
36716;DHT22;22699;51.034;3.730;2023-09-08T01:00:13;23.40;99.90
36716;DHT22;22699;51.034;3.730;2023-09-08T01:02:47;23.40;99.90
36716;DHT22;22699;51.034;3.730;2023-09-08T01:05:14;23.30;99.90
36716;DHT22;22699;51.034;3.730;2023-09-08T01:07:41;23.30;99.90
36716;DHT22;22699;51.034;3.730;2023-09-08T01:10:12;23.30;99.90
36716;DHT22;22699;51.034;3.730;2023-09-08T01:12:42;23.30;99.90
36716;DHT22;22699;51.034;3.730;2023-09-08T01:15:09;23.30;99.90
36716;DHT22;22699;51.034;3.730;2023-09-08T01:17:35;23.30;99.90
36716;DHT22;22699;51.034;3.730;2023-09-08T01:20:26;23.30;99.90
36716;DHT22;22699;51.034;3.730;2023-09-08T01:25:29;23.30;99.90
36716;DHT22;22699;51.034;3.730;2023-09-08T01:27:57;23.30;99.90
36716;DHT22;22699;51.034;3.730;2023-09-08T01:30:45;23.20;99.90
36716;DHT22;22699;51.034;3.730;2023-09-08T01:33:31;23.20;99.90
36716;DHT22;22699;51.034;3.730;2023-09-08T01:35:57;23.20;99.90
36716;DHT22;22699;51.034;3.730;2023-09-08T01:38:24;23.10;99.90
36716;DHT22;22699;51.034;3.730;2023-09-08T01:40:50;23.10;99.90
36716;DHT22;22699;51.034;3.730;2023-09-08T01:43:15;23.20;99.90
36716;DHT22;22699;51.034;3.730;2023-09-08T01:45:41;23.20;99.90
36716;DHT22;22699;51.034;3.730;2023-09-08T01:48:07;23.10;99.90
36716;DHT22;22699;51.034;3.730;2023-09-08T01:50:34;23.10;99.90
36716;DHT22;22699;51.034;3.730;2023-09-08T01:52:59;23.00;99.90
36716;DHT22;22699;51.034;3.730;2023-09-08T01:55:25;23.00;99.90
36716;DHT22;22699;51.034;3.730;2023-09-08T01:57:52;23.10;99.90
36716;DHT22;22699;51.034;3.730;2023-09-08T02:00:21;23.00;99.90
36716;DHT22;22699;51.034;3.730;2023-09-08T02:02:47;23.00;99.90
36716;DHT22;22699;51.034;3.730;2023-09-08T02:05:14;23.00;99.90
36716;DHT22;22699;51.034;3.730;2023-09-08T02:07:39;23.00;99.90
36716;DHT22;22699;51.034;3.730;2023-09-08T02:10:09;23.00;99.90
36716;DHT22;22699;51.034;3.730;2023-09-08T02:12:36;23.00;99.90
36716;DHT22;22699;51.034;3.730;2023-09-08T02:15:06;23.00;99.90
36716;DHT22;22699;51.034;3.730;2023-09-08T02:17:31;23.00;99.90
36716;DHT22;22699;51.034;3.730;2023-09-08T02:19:59;22.90;99.90
36716;DHT22;22699;51.034;3.730;2023-09-08T02:22:26;22.90;99.90
36716;DHT22;22699;51.034;3.730;2023-09-08T02:24:51;22.90;99.90
36716;DHT22;22699;51.034;3.730;2023-09-08T02:27:20;22.90;99.90
36716;DHT22;22699;51.034;3.730;2023-09-08T02:29:46;22.80;99.90
36716;DHT22;22699;51.034;3.730;2023-09-08T02:32:14;22.90;99.90
36716;DHT22;22699;51.034;3.730;2023-09-08T02:34:42;22.90;99.90
36716;DHT22;22699;51.034;3.730;2023-09-08T02:37:10;22.90;99.90
36716;DHT22;22699;51.034;3.730;2023-09-08T02:39:35;22.80;99.90
36716;DHT22;22699;51.034;3.730;2023-09-08T02:42:01;22.70;99.90
36716;DHT22;22699;51.034;3.730;2023-09-08T02:44:27;22.70;99.90
36716;DHT22;22699;51.034;3.730;2023-09-08T02:46:52;22.60;99.90
36716;DHT22;22699;51.034;3.730;2023-09-08T02:49:18;22.60;99.90
36716;DHT22;22699;51.034;3.730;2023-09-08T02:51:44;22.60;99.90
36716;DHT22;22699;51.034;3.730;2023-09-08T02:54:10;22.60;99.90
36716;DHT22;22699;51.034;3.730;2023-09-08T02:56:35;22.60;99.90
36716;DHT22;22699;51.034;3.730;2023-09-08T02:59:07;22.60;99.90
36716;DHT22;22699;51.034;3.730;2023-09-08T03:01:56;22.60;99.90
36716;DHT22;22699;51.034;3.730;2023-09-08T03:04:22;22.60;99.90
36716;DHT22;22699;51.034;3.730;2023-09-08T03:06:49;22.60;99.90
36716;DHT22;22699;51.034;3.730;2023-09-08T03:09:15;22.60;99.90
36716;DHT22;22699;51.034;3.730;2023-09-08T03:11:43;22.60;99.90
36716;DHT22;22699;51.034;3.730;2023-09-08T03:14:16;22.60;99.90
36716;DHT22;22699;51.034;3.730;2023-09-08T03:16:45;22.60;99.90
36716;DHT22;22699;51.034;3.730;2023-09-08T03:19:11;22.60;99.90
36716;DHT22;22699;51.034;3.730;2023-09-08T03:21:36;22.50;99.90
36716;DHT22;22699;51.034;3.730;2023-09-08T03:24:11;22.40;99.90
36716;DHT22;22699;51.034;3.730;2023-09-08T03:26:38;22.40;99.90
36716;DHT22;22699;51.034;3.730;2023-09-08T03:29:07;22.30;99.90
36716;DHT22;22699;51.034;3.730;2023-09-08T03:31:33;22.30;99.90
36716;DHT22;22699;51.034;3.730;2023-09-08T03:33:59;22.30;99.90
36716;DHT22;22699;51.034;3.730;2023-09-08T03:36:25;22.30;99.90
36716;DHT22;22699;51.034;3.730;2023-09-08T03:38:50;22.30;99.90
36716;DHT22;22699;51.034;3.730;2023-09-08T03:41:16;22.20;99.90
36716;DHT22;22699;51.034;3.730;2023-09-08T03:43:42;22.10;99.90
36716;DHT22;22699;51.034;3.730;2023-09-08T03:46:07;22.10;99.90
36716;DHT22;22699;51.034;3.730;2023-09-08T03:48:33;22.10;99.90
36716;DHT22;22699;51.034;3.730;2023-09-08T03:50:58;22.10;99.90
36716;DHT22;22699;51.034;3.730;2023-09-08T03:53:26;22.10;99.90
36716;DHT22;22699;51.034;3.730;2023-09-08T03:55:51;22.10;99.90
36716;DHT22;22699;51.034;3.730;2023-09-08T03:58:17;22.10;99.90
36716;DHT22;22699;51.034;3.730;2023-09-08T04:00:59;22.10;99.90
36716;DHT22;22699;51.034;3.730;2023-09-08T04:03:25;22.10;99.90
36716;DHT22;22699;51.034;3.730;2023-09-08T04:05:51;22.00;99.90
36716;DHT22;22699;51.034;3.730;2023-09-08T04:08:17;22.00;99.90
36716;DHT22;22699;51.034;3.730;2023-09-08T04:10:45;21.90;99.90
36716;DHT22;22699;51.034;3.730;2023-09-08T04:13:10;22.00;99.90
36716;DHT22;22699;51.034;3.730;2023-09-08T04:15:36;22.00;99.90
36716;DHT22;22699;51.034;3.730;2023-09-08T04:18:05;22.00;99.90
36716;DHT22;22699;51.034;3.730;2023-09-08T04:20:31;22.00;99.90
36716;DHT22;22699;51.034;3.730;2023-09-08T04:22:57;21.90;99.90
36716;DHT22;22699;51.034;3.730;2023-09-08T04:25:22;21.90;99.90
36716;DHT22;22699;51.034;3.730;2023-09-08T04:27:48;21.90;99.90
36716;DHT22;22699;51.034;3.730;2023-09-08T04:30:22;21.90;99.90
36716;DHT22;22699;51.034;3.730;2023-09-08T04:32:48;21.90;99.90
36716;DHT22;22699;51.034;3.730;2023-09-08T04:35:13;21.80;99.90
36716;DHT22;22699;51.034;3.730;2023-09-08T04:37:39;21.80;99.90
36716;DHT22;22699;51.034;3.730;2023-09-08T04:40:08;21.80;99.90
36716;DHT22;22699;51.034;3.730;2023-09-08T04:42:39;21.80;99.90
36716;DHT22;22699;51.034;3.730;2023-09-08T04:45:06;21.80;99.90
36716;DHT22;22699;51.034;3.730;2023-09-08T04:47:32;21.80;99.90
36716;DHT22;22699;51.034;3.730;2023-09-08T04:49:58;21.70;99.90
36716;DHT22;22699;51.034;3.730;2023-09-08T04:52:24;21.70;99.90
36716;DHT22;22699;51.034;3.730;2023-09-08T04:54:50;21.70;99.90
36716;DHT22;22699;51.034;3.730;2023-09-08T04:57:15;21.70;99.90
36716;DHT22;22699;51.034;3.730;2023-09-08T04:59:49;21.70;99.90
36716;DHT22;22699;51.034;3.730;2023-09-08T05:02:17;21.70;99.90
36716;DHT22;22699;51.034;3.730;2023-09-08T05:04:44;21.60;99.90
36716;DHT22;22699;51.034;3.730;2023-09-08T05:07:10;21.50;99.90
36716;DHT22;22699;51.034;3.730;2023-09-08T05:09:38;21.50;99.90
36716;DHT22;22699;51.034;3.730;2023-09-08T05:12:04;21.50;99.90
36716;DHT22;22699;51.034;3.730;2023-09-08T05:14:31;21.50;99.90
36716;DHT22;22699;51.034;3.730;2023-09-08T05:16:58;21.40;99.90
36716;DHT22;22699;51.034;3.730;2023-09-08T05:19:26;21.50;99.90
36716;DHT22;22699;51.034;3.730;2023-09-08T05:22:14;21.50;99.90
36716;DHT22;22699;51.034;3.730;2023-09-08T05:24:39;21.40;99.90
36716;DHT22;22699;51.034;3.730;2023-09-08T05:27:07;21.40;99.90
36716;DHT22;22699;51.034;3.730;2023-09-08T05:29:32;21.50;99.90
36716;DHT22;22699;51.034;3.730;2023-09-08T05:32:06;21.50;99.90
36716;DHT22;22699;51.034;3.730;2023-09-08T05:34:33;21.40;99.90
36716;DHT22;22699;51.034;3.730;2023-09-08T05:37:00;21.50;99.90
36716;DHT22;22699;51.034;3.730;2023-09-08T05:39:27;21.60;99.90
36716;DHT22;22699;51.034;3.730;2023-09-08T05:41:53;21.60;99.90
36716;DHT22;22699;51.034;3.730;2023-09-08T05:44:20;21.60;99.90
36716;DHT22;22699;51.034;3.730;2023-09-08T05:46:55;21.60;99.90
36716;DHT22;22699;51.034;3.730;2023-09-08T05:49:21;21.60;99.90
36716;DHT22;22699;51.034;3.730;2023-09-08T05:51:48;21.60;99.90
36716;DHT22;22699;51.034;3.730;2023-09-08T05:54:14;21.70;99.90
36716;DHT22;22699;51.034;3.730;2023-09-08T05:56:42;21.70;99.90
36716;DHT22;22699;51.034;3.730;2023-09-08T05:59:17;21.70;99.90
36716;DHT22;22699;51.034;3.730;2023-09-08T06:01:48;21.80;99.90
36716;DHT22;22699;51.034;3.730;2023-09-08T06:04:14;21.80;99.90
36716;DHT22;22699;51.034;3.730;2023-09-08T06:06:39;21.90;99.90
36716;DHT22;22699;51.034;3.730;2023-09-08T06:09:06;22.00;99.90
36716;DHT22;22699;51.034;3.730;2023-09-08T06:11:34;22.00;99.90
36716;DHT22;22699;51.034;3.730;2023-09-08T06:14:00;22.00;99.90
36716;DHT22;22699;51.034;3.730;2023-09-08T06:16:26;22.00;99.90
36716;DHT22;22699;51.034;3.730;2023-09-08T06:18:51;22.00;99.90
36716;DHT22;22699;51.034;3.730;2023-09-08T06:21:18;22.00;99.90
36716;DHT22;22699;51.034;3.730;2023-09-08T06:23:44;22.00;99.90
36716;DHT22;22699;51.034;3.730;2023-09-08T06:26:09;22.10;99.90
36716;DHT22;22699;51.034;3.730;2023-09-08T06:28:36;22.00;99.90
36716;DHT22;22699;51.034;3.730;2023-09-08T06:31:02;22.00;99.90
36716;DHT22;22699;51.034;3.730;2023-09-08T06:33:27;22.10;99.90
36716;DHT22;22699;51.034;3.730;2023-09-08T06:35:53;22.20;99.90
36716;DHT22;22699;51.034;3.730;2023-09-08T06:38:19;22.30;99.90
36716;DHT22;22699;51.034;3.730;2023-09-08T06:40:46;22.40;99.90
36716;DHT22;22699;51.034;3.730;2023-09-08T06:43:13;22.40;99.90
36716;DHT22;22699;51.034;3.730;2023-09-08T06:45:40;22.40;99.90
36716;DHT22;22699;51.034;3.730;2023-09-08T06:48:06;22.30;99.90
36716;DHT22;22699;51.034;3.730;2023-09-08T06:50:34;22.40;99.90
36716;DHT22;22699;51.034;3.730;2023-09-08T06:53:01;22.50;99.90
36716;DHT22;22699;51.034;3.730;2023-09-08T06:55:30;22.50;99.90
36716;DHT22;22699;51.034;3.730;2023-09-08T06:57:56;22.50;99.90
36716;DHT22;22699;51.034;3.730;2023-09-08T07:00:25;22.70;99.90
36716;DHT22;22699;51.034;3.730;2023-09-08T07:02:51;22.70;99.90
36716;DHT22;22699;51.034;3.730;2023-09-08T07:05:17;22.80;99.90
36716;DHT22;22699;51.034;3.730;2023-09-08T07:07:42;22.80;99.90
36716;DHT22;22699;51.034;3.730;2023-09-08T07:10:09;22.90;99.90
36716;DHT22;22699;51.034;3.730;2023-09-08T07:12:38;22.90;99.90
36716;DHT22;22699;51.034;3.730;2023-09-08T07:15:10;23.10;99.90
36716;DHT22;22699;51.034;3.730;2023-09-08T07:17:37;23.30;99.90
36716;DHT22;22699;51.034;3.730;2023-09-08T07:20:02;23.30;99.90
36716;DHT22;22699;51.034;3.730;2023-09-08T07:22:29;23.50;99.90
36716;DHT22;22699;51.034;3.730;2023-09-08T07:24:55;23.60;99.90
36716;DHT22;22699;51.034;3.730;2023-09-08T07:27:22;23.60;99.90
36716;DHT22;22699;51.034;3.730;2023-09-08T07:29:48;23.50;99.90
36716;DHT22;22699;51.034;3.730;2023-09-08T07:32:15;23.70;99.90
36716;DHT22;22699;51.034;3.730;2023-09-08T07:34:41;23.80;99.90
36716;DHT22;22699;51.034;3.730;2023-09-08T07:37:07;24.00;99.90
36716;DHT22;22699;51.034;3.730;2023-09-08T07:39:34;24.10;99.90
36716;DHT22;22699;51.034;3.730;2023-09-08T07:42:06;24.30;99.90
36716;DHT22;22699;51.034;3.730;2023-09-08T07:44:34;24.50;99.90
36716;DHT22;22699;51.034;3.730;2023-09-08T07:46:59;25.70;99.90
36716;DHT22;22699;51.034;3.730;2023-09-08T07:49:25;28.40;97.40
36716;DHT22;22699;51.034;3.730;2023-09-08T07:51:54;31.80;92.10
36716;DHT22;22699;51.034;3.730;2023-09-08T07:54:21;34.60;81.90
36716;DHT22;22699;51.034;3.730;2023-09-08T07:56:48;36.70;72.50
36716;DHT22;22699;51.034;3.730;2023-09-08T07:59:13;39.00;66.10
36716;DHT22;22699;51.034;3.730;2023-09-08T08:01:39;40.60;60.80
36716;DHT22;22699;51.034;3.730;2023-09-08T08:04:04;42.00;57.20
36716;DHT22;22699;51.034;3.730;2023-09-08T08:06:30;43.60;55.00
36716;DHT22;22699;51.034;3.730;2023-09-08T08:08:56;44.30;52.40
36716;DHT22;22699;51.034;3.730;2023-09-08T08:11:23;44.60;51.30
36716;DHT22;22699;51.034;3.730;2023-09-08T08:13:49;45.40;50.50
36716;DHT22;22699;51.034;3.730;2023-09-08T08:16:14;46.30;49.30
36716;DHT22;22699;51.034;3.730;2023-09-08T08:18:40;46.70;48.30
36716;DHT22;22699;51.034;3.730;2023-09-08T08:21:05;46.60;47.90
36716;DHT22;22699;51.034;3.730;2023-09-08T08:23:31;47.30;47.50
36716;DHT22;22699;51.034;3.730;2023-09-08T08:25:58;47.90;46.80
36716;DHT22;22699;51.034;3.730;2023-09-08T08:28:24;48.00;46.30
36716;DHT22;22699;51.034;3.730;2023-09-08T08:30:52;48.80;45.80
36716;DHT22;22699;51.034;3.730;2023-09-08T08:33:18;49.60;45.00
36716;DHT22;22699;51.034;3.730;2023-09-08T08:35:51;50.60;44.30
36716;DHT22;22699;51.034;3.730;2023-09-08T08:38:18;51.20;43.70
36716;DHT22;22699;51.034;3.730;2023-09-08T08:40:44;51.80;42.70
36716;DHT22;22699;51.034;3.730;2023-09-08T08:43:10;52.20;42.40
36716;DHT22;22699;51.034;3.730;2023-09-08T08:45:37;52.30;42.20
36716;DHT22;22699;51.034;3.730;2023-09-08T08:48:05;52.70;41.90
36716;DHT22;22699;51.034;3.730;2023-09-08T08:50:34;53.10;41.30
36716;DHT22;22699;51.034;3.730;2023-09-08T08:53:00;52.90;41.10
36716;DHT22;22699;51.034;3.730;2023-09-08T08:55:30;53.20;41.00
36716;DHT22;22699;51.034;3.730;2023-09-08T08:58:03;53.40;40.90
36716;DHT22;22699;51.034;3.730;2023-09-08T09:00:30;53.50;40.80
36716;DHT22;22699;51.034;3.730;2023-09-08T09:02:56;53.60;40.40
36716;DHT22;22699;51.034;3.730;2023-09-08T09:05:24;53.60;40.40
36716;DHT22;22699;51.034;3.730;2023-09-08T09:07:50;53.60;40.50
36716;DHT22;22699;51.034;3.730;2023-09-08T09:10:16;53.80;40.10
36716;DHT22;22699;51.034;3.730;2023-09-08T09:12:42;53.60;40.30
36716;DHT22;22699;51.034;3.730;2023-09-08T09:15:08;53.70;40.00
36716;DHT22;22699;51.034;3.730;2023-09-08T09:17:34;53.00;40.40
36716;DHT22;22699;51.034;3.730;2023-09-08T09:20:17;52.80;40.50
36716;DHT22;22699;51.034;3.730;2023-09-08T09:22:45;52.30;41.10
36716;DHT22;22699;51.034;3.730;2023-09-08T09:25:21;52.10;41.10
36716;DHT22;22699;51.034;3.730;2023-09-08T09:27:58;52.10;41.70
36716;DHT22;22699;51.034;3.730;2023-09-08T09:30:24;51.60;41.30
36716;DHT22;22699;51.034;3.730;2023-09-08T09:33:01;51.70;41.30
36716;DHT22;22699;51.034;3.730;2023-09-08T09:35:41;51.70;41.10
36716;DHT22;22699;51.034;3.730;2023-09-08T09:38:07;51.60;41.50
36716;DHT22;22699;51.034;3.730;2023-09-08T09:40:34;51.00;41.70
36716;DHT22;22699;51.034;3.730;2023-09-08T09:42:59;50.80;42.60
36716;DHT22;22699;51.034;3.730;2023-09-08T09:45:25;50.20;42.50
36716;DHT22;22699;51.034;3.730;2023-09-08T09:47:51;49.70;42.80
36716;DHT22;22699;51.034;3.730;2023-09-08T09:50:28;49.40;42.90
36716;DHT22;22699;51.034;3.730;2023-09-08T09:52:57;48.90;42.90
36716;DHT22;22699;51.034;3.730;2023-09-08T09:55:24;46.90;44.20
36716;DHT22;22699;51.034;3.730;2023-09-08T09:57:51;44.10;46.70
36716;DHT22;22699;51.034;3.730;2023-09-08T10:00:19;42.10;48.90
36716;DHT22;22699;51.034;3.730;2023-09-08T10:02:46;39.80;51.80
36716;DHT22;22699;51.034;3.730;2023-09-08T10:05:12;38.10;53.80
36716;DHT22;22699;51.034;3.730;2023-09-08T10:07:41;36.50;56.50
36716;DHT22;22699;51.034;3.730;2023-09-08T10:10:09;35.40;59.30
36716;DHT22;22699;51.034;3.730;2023-09-08T10:12:56;34.60;60.60
36716;DHT22;22699;51.034;3.730;2023-09-08T10:15:23;33.80;62.50
36716;DHT22;22699;51.034;3.730;2023-09-08T10:17:55;33.10;64.30
36716;DHT22;22699;51.034;3.730;2023-09-08T10:20:29;32.50;65.30
36716;DHT22;22699;51.034;3.730;2023-09-08T10:23:27;32.30;66.10
36716;DHT22;22699;51.034;3.730;2023-09-08T10:25:59;31.90;67.60
36716;DHT22;22699;51.034;3.730;2023-09-08T10:28:32;31.60;68.20
36716;DHT22;22699;51.034;3.730;2023-09-08T10:30:58;31.40;68.70
36716;DHT22;22699;51.034;3.730;2023-09-08T10:33:25;31.20;69.20
36716;DHT22;22699;51.034;3.730;2023-09-08T10:35:52;31.10;70.30
36716;DHT22;22699;51.034;3.730;2023-09-08T10:40:52;30.60;72.40
36716;DHT22;22699;51.034;3.730;2023-09-08T10:43:21;30.80;72.10
36716;DHT22;22699;51.034;3.730;2023-09-08T10:45:47;30.80;71.90
36716;DHT22;22699;51.034;3.730;2023-09-08T10:48:15;31.00;73.30
36716;DHT22;22699;51.034;3.730;2023-09-08T10:50:42;31.00;73.60
36716;DHT22;22699;51.034;3.730;2023-09-08T10:53:13;30.70;73.90
36716;DHT22;22699;51.034;3.730;2023-09-08T10:55:43;30.60;75.50
36716;DHT22;22699;51.034;3.730;2023-09-08T10:58:11;30.60;74.90
36716;DHT22;22699;51.034;3.730;2023-09-08T11:01:00;30.70;74.90
36716;DHT22;22699;51.034;3.730;2023-09-08T11:06:16;30.90;73.90
36716;DHT22;22699;51.034;3.730;2023-09-08T11:08:44;30.90;74.00
36716;DHT22;22699;51.034;3.730;2023-09-08T11:11:13;30.90;73.70
36716;DHT22;22699;51.034;3.730;2023-09-08T11:13:41;30.90;73.70
36716;DHT22;22699;51.034;3.730;2023-09-08T11:16:07;30.90;74.90
36716;DHT22;22699;51.034;3.730;2023-09-08T11:18:35;30.70;74.90
36716;DHT22;22699;51.034;3.730;2023-09-08T11:21:03;30.80;73.20
36716;DHT22;22699;51.034;3.730;2023-09-08T11:23:32;31.00;72.70
36716;DHT22;22699;51.034;3.730;2023-09-08T11:26:01;31.00;73.50
36716;DHT22;22699;51.034;3.730;2023-09-08T11:28:28;31.00;73.60
36716;DHT22;22699;51.034;3.730;2023-09-08T11:31:21;30.90;74.00
36716;DHT22;22699;51.034;3.730;2023-09-08T11:34:01;30.80;74.90
36716;DHT22;22699;51.034;3.730;2023-09-08T11:36:30;30.90;73.20
36716;DHT22;22699;51.034;3.730;2023-09-08T11:38:56;30.80;72.80
36716;DHT22;22699;51.034;3.730;2023-09-08T11:41:22;31.00;72.80
36716;DHT22;22699;51.034;3.730;2023-09-08T11:43:50;31.20;72.50
36716;DHT22;22699;51.034;3.730;2023-09-08T11:46:18;31.20;72.50
36716;DHT22;22699;51.034;3.730;2023-09-08T11:48:46;31.10;72.30
36716;DHT22;22699;51.034;3.730;2023-09-08T11:51:22;31.10;74.10
36716;DHT22;22699;51.034;3.730;2023-09-08T11:53:47;30.80;74.30
36716;DHT22;22699;51.034;3.730;2023-09-08T11:56:16;30.70;74.40
36716;DHT22;22699;51.034;3.730;2023-09-08T11:58:54;30.70;74.10
36716;DHT22;22699;51.034;3.730;2023-09-08T12:01:21;30.80;73.70
36716;DHT22;22699;51.034;3.730;2023-09-08T12:03:53;30.70;73.80
36716;DHT22;22699;51.034;3.730;2023-09-08T12:06:18;30.70;73.60
36716;DHT22;22699;51.034;3.730;2023-09-08T12:08:44;30.70;73.80
36716;DHT22;22699;51.034;3.730;2023-09-08T12:11:11;30.80;73.30
36716;DHT22;22699;51.034;3.730;2023-09-08T12:13:37;30.70;71.90
36716;DHT22;22699;51.034;3.730;2023-09-08T12:16:20;30.90;71.70
36716;DHT22;22699;51.034;3.730;2023-09-08T12:19:00;30.90;71.60
36716;DHT22;22699;51.034;3.730;2023-09-08T12:21:26;30.80;72.20
36716;DHT22;22699;51.034;3.730;2023-09-08T12:23:53;31.00;71.40
36716;DHT22;22699;51.034;3.730;2023-09-08T12:26:20;31.20;69.80
36716;DHT22;22699;51.034;3.730;2023-09-08T12:28:49;31.20;68.40
36716;DHT22;22699;51.034;3.730;2023-09-08T12:31:16;31.20;69.40
36716;DHT22;22699;51.034;3.730;2023-09-08T12:33:43;30.90;70.00
36716;DHT22;22699;51.034;3.730;2023-09-08T12:36:13;30.90;69.10
36716;DHT22;22699;51.034;3.730;2023-09-08T12:38:40;30.90;70.00
36716;DHT22;22699;51.034;3.730;2023-09-08T12:41:05;31.00;69.10
36716;DHT22;22699;51.034;3.730;2023-09-08T12:43:31;30.90;69.00
36716;DHT22;22699;51.034;3.730;2023-09-08T12:45:57;31.00;69.70
36716;DHT22;22699;51.034;3.730;2023-09-08T12:48:25;31.20;70.10
36716;DHT22;22699;51.034;3.730;2023-09-08T12:50:50;31.10;70.30
36716;DHT22;22699;51.034;3.730;2023-09-08T12:53:23;31.00;70.10
36716;DHT22;22699;51.034;3.730;2023-09-08T12:55:48;31.10;69.70
36716;DHT22;22699;51.034;3.730;2023-09-08T12:58:16;31.40;67.20
36716;DHT22;22699;51.034;3.730;2023-09-08T13:00:44;31.40;65.20
36716;DHT22;22699;51.034;3.730;2023-09-08T13:03:10;31.20;65.40
36716;DHT22;22699;51.034;3.730;2023-09-08T13:05:36;31.10;65.00
36716;DHT22;22699;51.034;3.730;2023-09-08T13:08:04;31.10;65.00
36716;DHT22;22699;51.034;3.730;2023-09-08T13:10:31;31.00;65.30
36716;DHT22;22699;51.034;3.730;2023-09-08T13:13:00;31.10;63.40
36716;DHT22;22699;51.034;3.730;2023-09-08T13:15:25;31.30;63.80
36716;DHT22;22699;51.034;3.730;2023-09-08T13:17:51;31.40;62.90
36716;DHT22;22699;51.034;3.730;2023-09-08T13:20:17;31.80;62.00
36716;DHT22;22699;51.034;3.730;2023-09-08T13:22:45;32.00;61.50
36716;DHT22;22699;51.034;3.730;2023-09-08T13:25:11;32.10;60.80
36716;DHT22;22699;51.034;3.730;2023-09-08T13:27:36;32.00;60.20
36716;DHT22;22699;51.034;3.730;2023-09-08T13:30:12;32.20;60.40
36716;DHT22;22699;51.034;3.730;2023-09-08T13:32:38;31.70;60.90
36716;DHT22;22699;51.034;3.730;2023-09-08T13:35:12;31.80;60.30
36716;DHT22;22699;51.034;3.730;2023-09-08T13:37:41;31.80;60.70
36716;DHT22;22699;51.034;3.730;2023-09-08T13:40:14;31.90;61.10
36716;DHT22;22699;51.034;3.730;2023-09-08T13:42:41;31.80;61.50
36716;DHT22;22699;51.034;3.730;2023-09-08T13:45:10;32.00;59.20
36716;DHT22;22699;51.034;3.730;2023-09-08T13:47:36;32.10;59.70
36716;DHT22;22699;51.034;3.730;2023-09-08T13:50:06;32.30;60.60
36716;DHT22;22699;51.034;3.730;2023-09-08T13:52:31;32.40;59.90
36716;DHT22;22699;51.034;3.730;2023-09-08T13:54:58;32.20;61.40
36716;DHT22;22699;51.034;3.730;2023-09-08T13:57:23;32.30;62.00
36716;DHT22;22699;51.034;3.730;2023-09-08T13:59:50;32.40;61.30
36716;DHT22;22699;51.034;3.730;2023-09-08T14:02:16;32.40;60.80
36716;DHT22;22699;51.034;3.730;2023-09-08T14:04:44;32.30;59.90
36716;DHT22;22699;51.034;3.730;2023-09-08T14:07:12;32.70;58.00
36716;DHT22;22699;51.034;3.730;2023-09-08T14:09:38;32.30;59.10
36716;DHT22;22699;51.034;3.730;2023-09-08T14:12:06;32.10;59.70
36716;DHT22;22699;51.034;3.730;2023-09-08T14:14:33;32.00;60.50
36716;DHT22;22699;51.034;3.730;2023-09-08T14:16:58;32.10;60.60
36716;DHT22;22699;51.034;3.730;2023-09-08T14:19:24;32.20;61.10
36716;DHT22;22699;51.034;3.730;2023-09-08T14:21:50;32.20;62.10
36716;DHT22;22699;51.034;3.730;2023-09-08T14:24:15;32.40;62.10
36716;DHT22;22699;51.034;3.730;2023-09-08T14:26:41;32.60;62.10
36716;DHT22;22699;51.034;3.730;2023-09-08T14:29:06;32.50;62.30
36716;DHT22;22699;51.034;3.730;2023-09-08T14:31:32;32.40;62.60
36716;DHT22;22699;51.034;3.730;2023-09-08T14:33:59;32.10;62.90
36716;DHT22;22699;51.034;3.730;2023-09-08T14:36:25;32.00;62.90
36716;DHT22;22699;51.034;3.730;2023-09-08T14:38:50;32.30;62.30
36716;DHT22;22699;51.034;3.730;2023-09-08T14:41:16;32.40;61.80
36716;DHT22;22699;51.034;3.730;2023-09-08T14:43:42;32.70;60.50
36716;DHT22;22699;51.034;3.730;2023-09-08T14:46:08;32.60;60.50
36716;DHT22;22699;51.034;3.730;2023-09-08T14:48:35;32.50;60.50
36716;DHT22;22699;51.034;3.730;2023-09-08T14:51:05;32.30;60.70
36716;DHT22;22699;51.034;3.730;2023-09-08T14:53:53;32.30;61.20
36716;DHT22;22699;51.034;3.730;2023-09-08T14:56:22;32.20;61.90
36716;DHT22;22699;51.034;3.730;2023-09-08T14:58:52;32.20;62.20
36716;DHT22;22699;51.034;3.730;2023-09-08T15:01:31;32.30;62.50
36716;DHT22;22699;51.034;3.730;2023-09-08T15:03:57;32.30;61.90
36716;DHT22;22699;51.034;3.730;2023-09-08T15:06:25;32.40;61.10
36716;DHT22;22699;51.034;3.730;2023-09-08T15:08:51;32.50;60.30
36716;DHT22;22699;51.034;3.730;2023-09-08T15:11:17;32.40;60.50
36716;DHT22;22699;51.034;3.730;2023-09-08T15:13:42;32.50;59.70
36716;DHT22;22699;51.034;3.730;2023-09-08T15:16:08;32.10;60.00
36716;DHT22;22699;51.034;3.730;2023-09-08T15:18:36;31.80;60.80
36716;DHT22;22699;51.034;3.730;2023-09-08T15:21:02;31.80;60.70
36716;DHT22;22699;51.034;3.730;2023-09-08T15:23:28;32.10;60.30
36716;DHT22;22699;51.034;3.730;2023-09-08T15:25:56;32.40;59.70
36716;DHT22;22699;51.034;3.730;2023-09-08T15:28:23;32.60;58.90
36716;DHT22;22699;51.034;3.730;2023-09-08T15:30:54;32.70;58.30
36716;DHT22;22699;51.034;3.730;2023-09-08T15:33:20;32.80;57.10
36716;DHT22;22699;51.034;3.730;2023-09-08T15:35:49;32.50;57.50
36716;DHT22;22699;51.034;3.730;2023-09-08T15:38:15;32.20;57.60
36716;DHT22;22699;51.034;3.730;2023-09-08T15:41:12;32.00;57.60
36716;DHT22;22699;51.034;3.730;2023-09-08T15:43:46;32.10;57.90